Time;durP1;ratioP1;P1;durP2;ratioP2;P2;SDS_P1;SDS_P2;PMS_P1;PMS_P2;Temp;Humidity;BMP_temperature;BMP_pressure;BME280_temperature;BME280_humidity;BME280_pressure;Samples;Min_cycle;Max_cycle;Signal;HPM_P1;HPM_P2
2022/01/02 00:02:12;;;;;;;16.98;9.98;;;;;;;;;;5093756;28;20099;-69
2022/01/02 00:04:45;;;;;;;12.15;7.78;;;;;;;;;;5091744;28;20028;-70
2022/01/02 00:07:13;;;;;;;15.87;9.73;;;;;;;;;;5094049;28;20028;-70
2022/01/02 00:09:43;;;;;;;16.58;10.90;;;;;;;;;;5092122;28;20028;-70
2022/01/02 00:12:28;;;;;;;18.92;10.10;;;;;;;;;;5093268;28;20024;-70
2022/01/02 00:14:56;;;;;;;14.20;7.68;;;;;;;;;;5093758;28;20019;-70
2022/01/02 00:17:23;;;;;;;11.75;6.57;;;;;;;;;;5093090;28;20047;-69
2022/01/02 00:19:56;;;;;;;12.32;6.85;;;;;;;;;;5093496;28;20091;-70
2022/01/02 00:22:36;;;;;;;9.70;5.97;;;;;;;;;;5093878;28;20066;-69
2022/01/02 00:25:06;;;;;;;11.38;6.20;;;;;;;;;;5091777;28;20046;-69
2022/01/02 00:27:35;;;;;;;10.25;6.10;;;;;;;;;;5093479;28;20016;-70
2022/01/02 00:30:03;;;;;;;18.10;8.32;;;;;;;;;;5092995;28;20048;-70
2022/01/02 00:32:29;;;;;;;33.08;16.10;;;;;;;;;;5092890;28;20020;-70
2022/01/02 00:34:56;;;;;;;20.77;10.23;;;;;;;;;;5093203;28;20028;-70
2022/01/02 00:37:22;;;;;;;13.02;7.22;;;;;;;;;;5093509;28;20096;-70
2022/01/02 00:39:48;;;;;;;13.18;6.68;;;;;;;;;;5092806;28;20031;-70
2022/01/02 00:42:20;;;;;;;12.50;5.90;;;;;;;;;;5093233;28;20555;-70
2022/01/02 00:44:57;;;;;;;11.82;5.65;;;;;;;;;;5093501;28;20070;-69
2022/01/02 00:47:43;;;;;;;13.20;6.55;;;;;;;;;;5092883;28;20024;-70
2022/01/02 00:50:11;;;;;;;15.65;6.80;;;;;;;;;;5093401;28;20067;-71
2022/01/02 00:52:39;;;;;;;11.73;6.30;;;;;;;;;;5091498;28;20038;-70
2022/01/02 00:55:07;;;;;;;10.82;5.70;;;;;;;;;;5093214;28;20026;-70
2022/01/02 00:57:37;;;;;;;12.48;6.50;;;;;;;;;;5093257;28;20021;-70
2022/01/02 01:00:16;;;;;;;12.52;5.95;;;;;;;;;;5092657;28;20030;-69
2022/01/02 01:02:42;;;;;;;9.55;5.60;;;;;;;;;;5093107;28;20023;-70
2022/01/02 01:05:09;;;;;;;9.52;5.65;;;;;;;;;;5093077;28;20031;-70
2022/01/02 01:07:37;;;;;;;8.38;5.05;;;;;;;;;;5092639;28;20069;-70
2022/01/02 01:10:06;;;;;;;8.40;4.82;;;;;;;;;;5092968;28;20032;-70
2022/01/02 01:12:32;;;;;;;10.20;5.25;;;;;;;;;;5093051;28;20025;-70
2022/01/02 01:15:00;;;;;;;10.07;4.78;;;;;;;;;;5092568;28;20024;-70
2022/01/02 01:17:26;;;;;;;10.80;5.45;;;;;;;;;;5095822;28;20016;-70
2022/01/02 01:19:53;;;;;;;9.45;5.32;;;;;;;;;;5097271;28;20020;-70
2022/01/02 01:22:20;;;;;;;10.82;5.22;;;;;;;;;;5096352;28;20024;-70
2022/01/02 01:24:46;;;;;;;10.57;5.95;;;;;;;;;;5096749;28;20384;-69
2022/01/02 01:27:13;;;;;;;10.60;5.75;;;;;;;;;;5096813;28;20028;-70
2022/01/02 01:29:39;;;;;;;11.55;5.03;;;;;;;;;;5095952;28;20044;-70
2022/01/02 01:32:05;;;;;;;11.65;5.10;;;;;;;;;;5096822;28;20073;-70
2022/01/02 01:34:32;;;;;;;8.38;4.70;;;;;;;;;;5095279;28;20020;-70
2022/01/02 01:36:58;;;;;;;10.68;5.63;;;;;;;;;;5096122;28;20127;-70
2022/01/02 01:39:25;;;;;;;10.35;5.57;;;;;;;;;;5096444;28;20020;-70
2022/01/02 01:41:53;;;;;;;11.48;6.18;;;;;;;;;;5096206;28;20035;-70
2022/01/02 01:46:48;;;;;;;12.82;6.75;;;;;;;;;;5096311;28;20089;-70
2022/01/02 01:49:21;;;;;;;10.65;5.80;;;;;;;;;;5096310;28;20028;-70
2022/01/02 01:51:48;;;;;;;10.35;5.25;;;;;;;;;;5096219;28;20468;-70
2022/01/02 01:54:14;;;;;;;12.00;5.93;;;;;;;;;;5096192;28;20039;-70
2022/01/02 01:56:40;;;;;;;12.20;6.47;;;;;;;;;;5095753;28;20093;-70
2022/01/02 01:59:07;;;;;;;14.95;7.45;;;;;;;;;;5096174;28;20028;-70
2022/01/02 02:01:33;;;;;;;13.98;7.18;;;;;;;;;;5096428;28;20476;-70
2022/01/02 02:04:00;;;;;;;14.68;7.38;;;;;;;;;;5094275;28;20074;-70
2022/01/02 02:06:27;;;;;;;12.75;7.75;;;;;;;;;;5096024;28;20020;-70
2022/01/02 02:08:59;;;;;;;12.50;7.30;;;;;;;;;;5094572;28;20032;-70
2022/01/02 02:11:25;;;;;;;11.82;6.88;;;;;;;;;;5095444;28;20032;-70
2022/01/02 02:13:52;;;;;;;13.23;6.40;;;;;;;;;;5096325;28;20044;-70
2022/01/02 02:16:18;;;;;;;11.07;5.82;;;;;;;;;;5096030;28;20020;-69
2022/01/02 02:18:44;;;;;;;10.15;5.50;;;;;;;;;;5095286;28;20492;-69
2022/01/02 02:21:10;;;;;;;10.60;5.70;;;;;;;;;;5095832;28;20381;-69
2022/01/02 02:23:37;;;;;;;11.73;5.78;;;;;;;;;;5095657;28;20081;-69
2022/01/02 02:26:03;;;;;;;12.55;6.90;;;;;;;;;;5095075;28;20028;-69
2022/01/02 02:28:29;;;;;;;11.02;6.40;;;;;;;;;;5095496;28;20016;-69
2022/01/02 02:30:56;;;;;;;9.65;5.05;;;;;;;;;;5094731;28;20059;-69
2022/01/02 02:33:23;;;;;;;8.73;4.72;;;;;;;;;;5094002;28;20107;-69
2022/01/02 02:35:50;;;;;;;10.13;5.75;;;;;;;;;;5094360;28;20031;-70
2022/01/02 02:38:17;;;;;;;8.85;5.07;;;;;;;;;;5095113;28;20035;-70
2022/01/02 02:40:44;;;;;;;10.52;5.18;;;;;;;;;;5095228;28;20487;-69
2022/01/02 02:43:52;;;;;;;10.27;4.88;;;;;;;;;;5095216;28;20388;-70
2022/01/02 02:49:00;;;;;;;7.90;4.28;;;;;;;;;;5095332;28;20146;-69
2022/01/02 02:51:57;;;;;;;8.63;4.07;;;;;;;;;;5095101;28;20035;-70
2022/01/02 02:54:30;;;;;;;8.75;4.53;;;;;;;;;;5094270;28;20024;-70
2022/01/02 02:56:58;;;;;;;9.38;4.55;;;;;;;;;;5095147;28;20046;-70
2022/01/02 02:59:25;;;;;;;9.13;4.40;;;;;;;;;;5094528;28;20023;-69
2022/01/02 03:01:52;;;;;;;8.90;4.80;;;;;;;;;;5094828;28;20032;-69
2022/01/02 03:04:19;;;;;;;9.63;4.75;;;;;;;;;;5094813;28;20025;-69
2022/01/02 03:06:45;;;;;;;13.15;5.70;;;;;;;;;;5092965;28;20020;-69
2022/01/02 03:09:11;;;;;;;19.70;9.35;;;;;;;;;;5094604;28;20028;-70
2022/01/02 03:11:39;;;;;;;16.65;8.73;;;;;;;;;;5094925;28;20055;-69
2022/01/02 03:14:06;;;;;;;13.80;8.02;;;;;;;;;;5094229;28;20023;-69
2022/01/02 03:16:33;;;;;;;16.35;8.55;;;;;;;;;;5094576;28;20024;-69
2022/01/02 03:18:59;;;;;;;15.27;7.55;;;;;;;;;;5094582;28;20020;-69
2022/01/02 03:21:26;;;;;;;11.57;6.60;;;;;;;;;;5094166;28;20031;-70
2022/01/02 03:23:52;;;;;;;10.38;5.75;;;;;;;;;;5094637;28;20032;-69
2022/01/02 03:26:18;;;;;;;11.25;5.80;;;;;;;;;;5093080;28;20023;-69
2022/01/02 03:28:45;;;;;;;12.23;5.85;;;;;;;;;;5093889;28;20541;-69
2022/01/02 03:31:11;;;;;;;13.05;6.22;;;;;;;;;;5094106;28;20056;-69
2022/01/02 03:33:38;;;;;;;13.45;7.03;;;;;;;;;;5094420;28;20020;-69
2022/01/02 03:36:04;;;;;;;13.10;6.88;;;;;;;;;;5093826;28;20472;-69
2022/01/02 03:38:31;;;;;;;13.60;7.53;;;;;;;;;;5094175;28;20024;-69
2022/01/02 03:40:57;;;;;;;12.27;6.13;;;;;;;;;;5093745;28;20488;-69
2022/01/02 03:43:24;;;;;;;11.48;5.53;;;;;;;;;;5093731;28;20352;-69
2022/01/02 03:45:50;;;;;;;9.40;5.07;;;;;;;;;;5094129;28;20028;-70
2022/01/02 03:48:16;;;;;;;10.38;6.03;;;;;;;;;;5093595;28;20733;-69
2022/01/02 03:50:43;;;;;;;11.23;5.80;;;;;;;;;;5093877;28;20082;-69
2022/01/02 03:53:09;;;;;;;10.05;5.43;;;;;;;;;;5093913;28;20020;-70
2022/01/02 03:55:35;;;;;;;10.63;5.38;;;;;;;;;;5093398;28;20039;-70
2022/01/02 03:58:02;;;;;;;9.13;4.88;;;;;;;;;;5093841;28;20054;-70
2022/01/02 04:00:28;;;;;;;9.35;5.13;;;;;;;;;;5093766;28;20079;-69
2022/01/02 04:02:54;;;;;;;11.75;5.78;;;;;;;;;;5093509;28;20017;-69
2022/01/02 04:05:20;;;;;;;10.27;5.05;;;;;;;;;;5093818;28;20024;-69
2022/01/02 04:07:46;;;;;;;10.85;5.72;;;;;;;;;;5093728;28;20024;-69
2022/01/02 04:10:14;;;;;;;9.38;5.07;;;;;;;;;;5093272;28;20111;-69
2022/01/02 04:12:42;;;;;;;9.02;4.88;;;;;;;;;;5093806;28;20032;-69
2022/01/02 04:15:09;;;;;;;9.18;4.88;;;;;;;;;;5093612;28;20027;-69
2022/01/02 04:17:36;;;;;;;8.15;4.40;;;;;;;;;;5093267;28;20028;-69
2022/01/02 04:20:04;;;;;;;7.72;4.40;;;;;;;;;;5093651;28;20426;-69
2022/01/02 04:22:30;;;;;;;8.02;4.75;;;;;;;;;;5093524;28;20461;-69
2022/01/02 04:24:56;;;;;;;10.45;4.97;;;;;;;;;;5093140;28;20031;-71
2022/01/02 04:27:23;;;;;;;9.10;4.90;;;;;;;;;;5093403;28;20024;-69
2022/01/02 04:29:50;;;;;;;9.38;4.68;;;;;;;;;;5093275;28;20036;-69
2022/01/02 04:32:16;;;;;;;8.13;4.40;;;;;;;;;;5091722;28;20031;-69
2022/01/02 04:34:42;;;;;;;7.28;4.55;;;;;;;;;;5093390;28;20073;-69
2022/01/02 04:37:10;;;;;;;8.27;4.32;;;;;;;;;;5093338;28;20028;-70
2022/01/02 04:39:36;;;;;;;10.27;6.05;;;;;;;;;;5092948;28;20016;-69
2022/01/02 04:42:03;;;;;;;13.73;7.03;;;;;;;;;;5093451;28;20028;-69
2022/01/02 04:44:29;;;;;;;10.55;6.15;;;;;;;;;;5093165;28;20062;-69
2022/01/02 04:46:55;;;;;;;9.82;6.05;;;;;;;;;;5093274;28;20103;-69
2022/01/02 04:49:21;;;;;;;10.27;5.97;;;;;;;;;;5091902;28;20126;-70
2022/01/02 04:51:48;;;;;;;10.15;5.55;;;;;;;;;;5093109;28;20032;-70
2022/01/02 04:54:14;;;;;;;9.63;6.00;;;;;;;;;;5097294;28;20028;-70
2022/01/02 04:56:40;;;;;;;12.25;6.13;;;;;;;;;;5097832;28;20504;-70
2022/01/02 04:59:06;;;;;;;10.60;5.60;;;;;;;;;;5096933;28;20039;-69
2022/01/02 05:01:33;;;;;;;9.23;5.03;;;;;;;;;;5097154;28;20024;-69
2022/01/02 05:03:59;;;;;;;10.23;5.85;;;;;;;;;;5095888;28;20028;-69
2022/01/02 05:06:25;;;;;;;11.57;5.88;;;;;;;;;;5096707;28;20034;-69
2022/01/02 05:08:51;;;;;;;11.85;5.78;;;;;;;;;;5097254;28;20476;-69
2022/01/02 05:11:18;;;;;;;10.18;5.82;;;;;;;;;;5097222;28;20035;-69
2022/01/02 05:13:44;;;;;;;10.50;5.55;;;;;;;;;;5096551;28;20016;-69
2022/01/02 05:16:10;;;;;;;10.43;5.65;;;;;;;;;;5096973;28;20024;-69
2022/01/02 05:18:36;;;;;;;8.35;5.30;;;;;;;;;;5096866;28;20093;-69
2022/01/02 05:21:03;;;;;;;9.82;5.25;;;;;;;;;;5096533;28;20031;-69
2022/01/02 05:23:30;;;;;;;9.98;5.45;;;;;;;;;;5096822;28;20016;-69
2022/01/02 05:25:56;;;;;;;11.35;5.93;;;;;;;;;;5096944;28;20073;-69
2022/01/02 05:28:23;;;;;;;8.07;4.93;;;;;;;;;;5094949;28;20031;-69
2022/01/02 05:30:49;;;;;;;8.23;4.55;;;;;;;;;;5096412;28;20048;-69
2022/01/02 05:33:16;;;;;;;11.20;5.55;;;;;;;;;;5096516;28;20024;-70
2022/01/02 05:35:42;;;;;;;11.48;6.70;;;;;;;;;;5094835;28;20035;-69
2022/01/02 05:38:08;;;;;;;10.75;6.10;;;;;;;;;;5096584;28;20043;-69
2022/01/02 05:40:34;;;;;;;14.43;7.20;;;;;;;;;;5096481;28;20141;-70
2022/01/02 05:43:06;;;;;;;11.23;6.45;;;;;;;;;;5094790;28;20024;-70
2022/01/02 05:45:33;;;;;;;9.35;5.70;;;;;;;;;;5096345;28;20023;-69
2022/01/02 05:48:01;;;;;;;8.98;5.28;;;;;;;;;;5095898;28;20024;-70
2022/01/02 05:50:28;;;;;;;8.77;4.70;;;;;;;;;;5096121;28;20494;-70
2022/01/02 05:52:54;;;;;;;9.90;5.22;;;;;;;;;;5096544;28;20404;-70
2022/01/02 05:55:20;;;;;;;9.45;4.45;;;;;;;;;;5095864;28;20073;-70
2022/01/02 05:57:47;;;;;;;10.45;5.80;;;;;;;;;;5096071;28;20076;-70
2022/01/02 06:00:13;;;;;;;9.23;4.50;;;;;;;;;;5096244;28;20029;-69
2022/01/02 06:02:39;;;;;;;7.95;5.20;;;;;;;;;;5095270;28;20028;-69
2022/01/02 06:05:06;;;;;;;11.70;7.78;;;;;;;;;;5095993;28;20024;-70
2022/01/02 06:07:33;;;;;;;12.45;7.13;;;;;;;;;;5095984;28;20020;-69
2022/01/02 06:10:00;;;;;;;13.55;7.55;;;;;;;;;;5094148;28;20024;-71
2022/01/02 06:12:26;;;;;;;13.23;9.15;;;;;;;;;;5095846;28;20035;-69
2022/01/02 06:14:53;;;;;;;10.77;6.70;;;;;;;;;;5095804;28;20532;-69
2022/01/02 06:17:19;;;;;;;11.52;5.90;;;;;;;;;;5095598;28;20053;-70
2022/01/02 06:19:45;;;;;;;13.60;7.20;;;;;;;;;;5095731;28;20377;-69
2022/01/02 06:22:11;;;;;;;12.05;7.10;;;;;;;;;;5095815;28;20016;-68
2022/01/02 06:24:37;;;;;;;12.82;7.57;;;;;;;;;;5095288;28;20027;-68
2022/01/02 06:27:04;;;;;;;14.63;8.05;;;;;;;;;;5095622;28;20020;-68
2022/01/02 06:29:30;;;;;;;17.02;10.13;;;;;;;;;;5095348;28;20047;-69
2022/01/02 06:31:57;;;;;;;17.73;9.48;;;;;;;;;;5095103;28;20028;-69
2022/01/02 06:34:24;;;;;;;22.70;11.40;;;;;;;;;;5095411;28;20023;-69
2022/01/02 06:36:50;;;;;;;25.98;12.38;;;;;;;;;;5095357;28;20024;-70
2022/01/02 06:39:16;;;;;;;17.25;9.80;;;;;;;;;;5095096;28;20031;-70
2022/01/02 06:41:42;;;;;;;14.45;8.15;;;;;;;;;;5095561;28;20016;-70
2022/01/02 06:44:08;;;;;;;16.73;8.77;;;;;;;;;;5094926;28;20054;-70
2022/01/02 06:46:35;;;;;;;15.35;9.20;;;;;;;;;;5095123;28;20028;-70
2022/01/02 06:49:01;;;;;;;16.90;10.07;;;;;;;;;;5095122;28;20024;-69
2022/01/02 06:51:27;;;;;;;23.88;13.55;;;;;;;;;;5094640;28;20043;-70
2022/01/02 06:53:53;;;;;;;18.00;11.48;;;;;;;;;;5095546;28;20048;-70
2022/01/02 06:56:19;;;;;;;21.52;14.07;;;;;;;;;;5094996;28;20106;-70
2022/01/02 06:58:45;;;;;;;16.90;10.88;;;;;;;;;;5094556;28;20028;-70
2022/01/02 07:01:12;;;;;;;17.02;11.18;;;;;;;;;;5094992;28;20020;-69
2022/01/02 07:03:38;;;;;;;17.02;11.20;;;;;;;;;;5094855;28;20021;-69
2022/01/02 07:06:04;;;;;;;19.50;12.02;;;;;;;;;;5094385;28;20028;-69
2022/01/02 07:08:30;;;;;;;17.15;9.80;;;;;;;;;;5094761;28;20027;-69
2022/01/02 07:10:57;;;;;;;14.10;8.60;;;;;;;;;;5094558;28;20035;-70
2022/01/02 07:13:23;;;;;;;12.95;7.93;;;;;;;;;;5094015;28;20039;-69
2022/01/02 07:15:50;;;;;;;13.25;7.78;;;;;;;;;;5094043;28;20052;-70
2022/01/02 07:18:16;;;;;;;13.43;7.95;;;;;;;;;;5094546;28;20024;-69
2022/01/02 07:20:42;;;;;;;14.48;8.70;;;;;;;;;;5094113;28;20032;-69
2022/01/02 07:23:09;;;;;;;13.95;7.35;;;;;;;;;;5094509;28;20111;-69
2022/01/02 07:25:35;;;;;;;12.82;8.10;;;;;;;;;;5093146;28;20063;-69
2022/01/02 07:28:01;;;;;;;13.15;7.90;;;;;;;;;;5094028;28;20369;-69
2022/01/02 07:30:27;;;;;;;13.43;7.88;;;;;;;;;;5094135;28;20561;-69
2022/01/02 07:32:53;;;;;;;13.55;8.18;;;;;;;;;;5094259;28;20024;-70
2022/01/02 07:35:19;;;;;;;16.27;9.68;;;;;;;;;;5093874;28;20030;-70
2022/01/02 07:37:46;;;;;;;20.58;11.05;;;;;;;;;;5094170;28;20016;-69
2022/01/02 07:40:12;;;;;;;27.38;15.38;;;;;;;;;;5094269;28;20074;-69
2022/01/02 07:42:38;;;;;;;21.92;12.75;;;;;;;;;;5092378;28;20373;-69
2022/01/02 07:45:05;;;;;;;20.40;12.23;;;;;;;;;;5094089;28;20024;-69
2022/01/02 07:47:31;;;;;;;25.63;14.70;;;;;;;;;;5092336;28;20020;-69
2022/01/02 07:49:57;;;;;;;23.17;12.93;;;;;;;;;;5093865;28;20038;-70
2022/01/02 07:52:23;;;;;;;20.80;11.55;;;;;;;;;;5093985;28;20024;-70
2022/01/02 07:54:49;;;;;;;17.58;11.30;;;;;;;;;;5093502;28;20020;-70
2022/01/02 07:57:16;;;;;;;19.77;11.50;;;;;;;;;;5094254;28;20034;-70
2022/01/02 07:59:42;;;;;;;22.05;13.50;;;;;;;;;;5094099;28;20020;-69
2022/01/02 08:02:08;;;;;;;25.85;15.88;;;;;;;;;;5093356;28;20497;-69
2022/01/02 08:04:34;;;;;;;28.95;17.92;;;;;;;;;;5093727;28;20030;-69
2022/01/02 08:07:00;;;;;;;24.05;15.25;;;;;;;;;;5093663;28;20016;-70
2022/01/02 08:09:26;;;;;;;23.48;13.45;;;;;;;;;;5091854;28;20024;-69
2022/01/02 08:11:53;;;;;;;22.55;12.85;;;;;;;;;;5093630;28;20035;-69
2022/01/02 08:14:21;;;;;;;27.40;14.60;;;;;;;;;;5093941;28;20024;-70
2022/01/02 08:16:47;;;;;;;37.70;19.65;;;;;;;;;;5093135;28;20052;-69
2022/01/02 08:19:13;;;;;;;34.40;19.55;;;;;;;;;;5093624;28;20020;-69
2022/01/02 08:21:39;;;;;;;24.83;13.43;;;;;;;;;;5093507;28;20024;-69
2022/01/02 08:24:06;;;;;;;34.00;16.80;;;;;;;;;;5093235;28;20036;-69
2022/01/02 08:26:32;;;;;;;25.73;15.88;;;;;;;;;;5093308;28;20024;-69
2022/01/02 08:29:02;;;;;;;36.47;21.65;;;;;;;;;;5093259;28;20020;-68
2022/01/02 08:31:31;;;;;;;24.42;16.20;;;;;;;;;;5093078;28;20106;-69
2022/01/02 08:34:40;;;;;;;27.58;14.13;;;;;;;;;;5111418;27;20396;-69
2022/01/02 08:37:07;;;;;;;21.02;12.40;;;;;;;;;;5110922;28;20417;-69
2022/01/02 08:39:33;;;;;;;20.95;11.77;;;;;;;;;;5111105;28;20028;-70
2022/01/02 08:41:59;;;;;;;40.00;22.52;;;;;;;;;;5111129;28;20099;-69
2022/01/02 08:44:25;;;;;;;35.78;22.00;;;;;;;;;;5110680;28;20019;-70
2022/01/02 08:46:51;;;;;;;30.25;18.73;;;;;;;;;;5111103;28;20020;-70
2022/01/02 08:49:18;;;;;;;24.63;15.60;;;;;;;;;;5111254;28;20027;-70
2022/01/02 08:51:44;;;;;;;22.17;13.55;;;;;;;;;;5110671;28;20048;-70
2022/01/02 08:54:27;;;;;;;24.80;15.88;;;;;;;;;;5111713;27;20388;-69
2022/01/02 08:56:53;;;;;;;20.45;12.65;;;;;;;;;;5111208;28;20029;-69
2022/01/02 08:59:24;;;;;;;27.13;16.42;;;;;;;;;;5110703;28;20061;-69
2022/01/02 09:01:51;;;;;;;31.13;17.67;;;;;;;;;;5111181;28;20020;-69
2022/01/02 09:04:17;;;;;;;22.25;14.77;;;;;;;;;;5109649;28;20399;-69
2022/01/02 09:06:43;;;;;;;30.38;17.90;;;;;;;;;;5110501;28;20016;-69
2022/01/02 09:09:09;;;;;;;23.55;14.40;;;;;;;;;;5110952;28;20380;-71
2022/01/02 09:15:43;;;;;;;29.48;17.42;;;;;;;;;;5111743;27;20392;-71
2022/01/02 09:21:54;;;;;;;18.90;11.70;;;;;;;;;;5111751;27;20397;-72
2022/01/02 09:24:20;;;;;;;13.43;9.48;;;;;;;;;;5109956;28;20055;-71
2022/01/02 09:26:46;;;;;;;15.05;11.20;;;;;;;;;;5109399;28;20028;-69
2022/01/02 09:29:12;;;;;;;14.57;10.15;;;;;;;;;;5111023;28;20035;-69
2022/01/02 09:35:08;;;;;;;20.40;13.25;;;;;;;;;;5111353;27;20403;-70
2022/01/02 09:38:01;;;;;;;23.05;14.23;;;;;;;;;;5111242;27;20401;-71
2022/01/02 09:40:28;;;;;;;17.52;10.93;;;;;;;;;;5110696;28;20038;-71
2022/01/02 09:42:58;;;;;;;17.85;11.65;;;;;;;;;;5111219;28;20422;-71
2022/01/02 09:45:24;;;;;;;19.83;11.52;;;;;;;;;;5111172;28;20016;-71
2022/01/02 09:48:30;;;;;;;18.38;9.43;;;;;;;;;;5111002;27;20427;-71
2022/01/02 09:50:57;;;;;;;14.98;9.40;;;;;;;;;;5111111;28;20054;-69
2022/01/02 09:53:23;;;;;;;17.83;11.07;;;;;;;;;;5111095;28;20070;-72
2022/01/02 09:57:09;;;;;;;26.08;15.93;;;;;;;;;;5111858;27;20730;-69
2022/01/02 09:59:36;;;;;;;25.90;16.20;;;;;;;;;;5111013;28;20142;-71
2022/01/02 10:03:01;;;;;;;19.08;11.18;;;;;;;;;;5070342;28;20444;-71
2022/01/02 10:05:29;;;;;;;21.70;13.40;;;;;;;;;;5070626;28;20104;-71
2022/01/02 10:07:56;;;;;;;23.02;13.60;;;;;;;;;;5070507;28;20025;-69
2022/01/02 10:10:32;;;;;;;20.15;12.60;;;;;;;;;;5070104;28;20381;-71
2022/01/02 10:13:04;;;;;;;17.25;9.93;;;;;;;;;;5070411;28;20412;-71
2022/01/02 10:16:30;;;;;;;19.60;12.20;;;;;;;;;;5111210;27;20396;-71
2022/01/02 10:18:57;;;;;;;19.38;11.77;;;;;;;;;;5111366;28;20015;-71
2022/01/02 10:21:29;;;;;;;21.15;11.93;;;;;;;;;;5111148;28;20027;-71
2022/01/02 10:24:14;;;;;;;15.88;9.70;;;;;;;;;;5110831;28;20030;-71
2022/01/02 10:26:41;;;;;;;22.00;12.38;;;;;;;;;;5111162;28;20032;-71
2022/01/02 10:29:11;;;;;;;15.50;9.23;;;;;;;;;;5109592;28;20030;-71
2022/01/02 10:33:51;;;;;;;15.20;7.13;;;;;;;;;;5111432;27;20385;-70
2022/01/02 10:37:54;;;;;;;15.90;9.48;;;;;;;;;;5111046;27;20400;-71
2022/01/02 10:41:45;;;;;;;14.18;8.35;;;;;;;;;;5112057;27;20397;-71
2022/01/02 10:47:06;;;;;;;12.85;8.32;;;;;;;;;;5111321;27;20397;-68
2022/01/02 10:49:52;;;;;;;20.42;11.52;;;;;;;;;;5111238;28;20510;-69
2022/01/02 10:54:32;;;;;;;24.65;13.65;;;;;;;;;;5111842;27;20392;-69
2022/01/02 10:57:23;;;;;;;20.50;9.32;;;;;;;;;;5111636;27;20396;-69
2022/01/02 11:00:37;;;;;;;16.65;9.45;;;;;;;;;;5111727;27;20458;-69
2022/01/02 11:03:05;;;;;;;15.02;7.95;;;;;;;;;;5126978;28;20031;-69
2022/01/02 11:06:48;;;;;;;15.93;8.07;;;;;;;;;;5111870;27;20396;-69
2022/01/02 11:09:24;;;;;;;12.88;7.65;;;;;;;;;;5111982;27;20388;-68
2022/01/02 11:11:51;;;;;;;13.02;6.70;;;;;;;;;;5111041;28;20024;-70
2022/01/02 11:14:33;;;;;;;13.48;7.53;;;;;;;;;;5111076;27;20384;-69
2022/01/02 11:18:37;;;;;;;11.80;7.05;;;;;;;;;;5111376;27;20393;-68
2022/01/02 11:23:44;;;;;;;11.80;5.97;;;;;;;;;;5152301;27;20394;-70
2022/01/02 11:26:19;;;;;;;9.25;4.70;;;;;;;;;;5152002;27;20058;-70
2022/01/02 11:30:31;;;;;;;10.48;5.70;;;;;;;;;;5111588;27;20397;-68
2022/01/02 11:33:52;;;;;;;8.30;4.65;;;;;;;;;;5111087;27;20430;-68
2022/01/02 11:36:30;;;;;;;11.57;6.75;;;;;;;;;;5111942;27;20513;-68
2022/01/02 11:39:09;;;;;;;10.13;5.07;;;;;;;;;;5109893;28;20115;-68
2022/01/02 11:42:44;;;;;;;14.35;7.50;;;;;;;;;;5111844;27;20388;-68
2022/01/02 11:46:17;;;;;;;13.80;6.68;;;;;;;;;;5111581;27;20883;-68
2022/01/02 11:49:21;;;;;;;10.20;5.88;;;;;;;;;;5110705;28;20103;-70
2022/01/02 11:51:48;;;;;;;9.63;5.30;;;;;;;;;;5109809;28;20046;-70
2022/01/02 11:54:32;;;;;;;17.80;8.52;;;;;;;;;;5110515;28;20488;-70
2022/01/02 11:57:03;;;;;;;11.30;6.15;;;;;;;;;;5110996;28;20334;-70
2022/01/02 11:59:42;;;;;;;13.73;6.22;;;;;;;;;;5110924;28;20049;-70
2022/01/02 12:02:09;;;;;;;8.73;4.35;;;;;;;;;;5110402;28;20020;-70
2022/01/02 12:04:53;;;;;;;11.88;6.38;;;;;;;;;;5110849;28;20032;-70
2022/01/02 12:07:35;;;;;;;13.02;7.07;;;;;;;;;;5110756;28;20034;-70
2022/01/02 12:11:32;;;;;;;10.82;6.25;;;;;;;;;;5111171;27;20479;-69
2022/01/02 12:15:38;;;;;;;8.48;4.82;;;;;;;;;;5110886;27;20407;-69
2022/01/02 12:18:09;;;;;;;11.35;5.45;;;;;;;;;;5111392;28;20031;-69
2022/01/02 12:20:53;;;;;;;8.70;4.50;;;;;;;;;;5111456;28;20093;-69
2022/01/02 12:23:35;;;;;;;9.35;4.80;;;;;;;;;;5110651;28;20499;-69
2022/01/02 12:26:02;;;;;;;8.52;4.55;;;;;;;;;;5110991;28;20391;-69
2022/01/02 12:28:29;;;;;;;5.50;2.67;;;;;;;;;;5110927;28;20027;-69
2022/01/02 12:33:47;;;;;;;7.13;3.83;;;;;;;;;;5132128;27;20112;-69
2022/01/02 12:38:02;;;;;;;9.48;4.03;;;;;;;;;;5110731;27;20388;-69
2022/01/02 12:40:35;;;;;;;12.63;4.85;;;;;;;;;;5111327;28;20038;-69
2022/01/02 12:44:30;;;;;;;7.15;3.53;;;;;;;;;;5110942;27;20810;-69
2022/01/02 12:46:58;;;;;;;7.35;3.83;;;;;;;;;;5111147;28;20031;-70
2022/01/02 12:50:44;;;;;;;9.45;4.82;;;;;;;;;;5111180;27;20393;-70
2022/01/02 12:54:11;;;;;;;6.90;3.67;;;;;;;;;;5111978;27;20392;-69
2022/01/02 12:56:41;;;;;;;7.97;3.78;;;;;;;;;;5111234;28;20047;-69
2022/01/02 12:59:48;;;;;;;13.02;7.05;;;;;;;;;;5111202;27;20396;-69
2022/01/02 13:02:29;;;;;;;16.67;10.90;;;;;;;;;;5110009;28;20032;-69
2022/01/02 13:04:56;;;;;;;16.10;8.77;;;;;;;;;;5111002;28;20085;-69
2022/01/02 13:07:24;;;;;;;10.82;5.10;;;;;;;;;;5111109;28;20502;-69
2022/01/02 13:09:51;;;;;;;12.25;6.70;;;;;;;;;;5111028;28;20547;-70
2022/01/02 13:12:20;;;;;;;11.80;7.28;;;;;;;;;;5110604;28;20507;-70
2022/01/02 13:14:46;;;;;;;9.57;6.00;;;;;;;;;;5110935;28;20074;-71
2022/01/02 13:17:21;;;;;;;7.82;4.05;;;;;;;;;;5111126;28;20468;-70
2022/01/02 13:19:52;;;;;;;7.47;4.05;;;;;;;;;;5110492;28;20039;-70
2022/01/02 13:22:20;;;;;;;6.22;2.53;;;;;;;;;;5111248;28;20087;-70
2022/01/02 13:25:24;;;;;;;9.32;5.22;;;;;;;;;;5070954;28;20451;-69
2022/01/02 13:27:54;;;;;;;7.40;4.70;;;;;;;;;;5070579;28;20035;-70
2022/01/02 13:32:28;;;;;;;17.42;10.38;;;;;;;;;;5111097;27;20753;-71
2022/01/02 13:35:02;;;;;;;17.15;11.48;;;;;;;;;;5111046;28;20472;-71
2022/01/02 13:39:47;;;;;;;8.55;4.57;;;;;;;;;;5111153;27;20423;-71
2022/01/02 13:42:17;;;;;;;10.27;4.32;;;;;;;;;;5109952;28;20028;-70
2022/01/02 13:44:47;;;;;;;9.80;5.13;;;;;;;;;;5111105;28;20468;-70
2022/01/02 13:47:13;;;;;;;8.88;5.32;;;;;;;;;;5110526;28;20365;-71
2022/01/02 13:49:50;;;;;;;12.73;5.75;;;;;;;;;;5110966;28;20028;-70
2022/01/02 13:52:17;;;;;;;17.33;6.32;;;;;;;;;;5111144;28;20024;-71
2022/01/02 13:56:32;;;;;;;13.25;6.50;;;;;;;;;;5111256;27;20400;-70
2022/01/02 13:58:58;;;;;;;14.35;7.90;;;;;;;;;;5111255;28;20030;-71
2022/01/02 14:01:29;;;;;;;16.15;8.73;;;;;;;;;;5110883;28;20468;-71
2022/01/02 14:03:59;;;;;;;21.33;10.70;;;;;;;;;;5111276;28;20020;-69
2022/01/02 14:06:33;;;;;;;22.75;13.85;;;;;;;;;;5111025;28;20019;-69
2022/01/02 14:09:06;;;;;;;20.55;14.00;;;;;;;;;;5110521;28;20031;-70
2022/01/02 14:11:33;;;;;;;15.40;9.80;;;;;;;;;;5110836;28;20027;-70
2022/01/02 14:14:05;;;;;;;19.33;11.93;;;;;;;;;;5110783;28;20122;-70
2022/01/02 14:16:45;;;;;;;35.75;19.30;;;;;;;;;;5110467;28;20085;-70
2022/01/02 14:19:12;;;;;;;31.45;18.63;;;;;;;;;;5110849;28;20016;-71
2022/01/02 14:21:38;;;;;;;23.75;15.63;;;;;;;;;;5109124;28;20024;-71
2022/01/02 14:24:05;;;;;;;17.45;11.57;;;;;;;;;;5110710;28;20464;-72
2022/01/02 14:29:48;;;;;;;19.05;13.15;;;;;;;;;;5110844;27;20393;-69
2022/01/02 14:32:15;;;;;;;24.52;16.20;;;;;;;;;;5109784;28;20058;-72
2022/01/02 14:34:42;;;;;;;30.88;20.98;;;;;;;;;;5111070;28;20028;-72
2022/01/02 14:37:09;;;;;;;31.83;20.05;;;;;;;;;;5110659;28;20024;-72
2022/01/02 14:41:14;;;;;;;38.13;26.00;;;;;;;;;;5090973;28;20491;-69
2022/01/02 14:43:40;;;;;;;40.75;26.70;;;;;;;;;;5090384;28;20032;-70
2022/01/02 14:46:07;;;;;;;41.25;25.52;;;;;;;;;;5072475;28;20107;-70
2022/01/02 14:50:04;;;;;;;51.92;33.58;;;;;;;;;;5110804;27;20430;-70
2022/01/02 14:52:31;;;;;;;74.32;40.72;;;;;;;;;;5111159;28;20365;-71
2022/01/02 14:54:58;;;;;;;37.97;23.23;;;;;;;;;;5111096;28;20077;-70
2022/01/02 14:57:24;;;;;;;46.33;30.02;;;;;;;;;;5110660;28;20077;-70
2022/01/02 14:59:50;;;;;;;39.45;23.50;;;;;;;;;;5111125;28;20028;-70
2022/01/02 15:02:16;;;;;;;36.42;23.80;;;;;;;;;;5111027;28;20046;-70
2022/01/02 15:10:06;;;;;;;63.25;40.40;;;;;;;;;;5111849;27;20396;-72
2022/01/02 15:12:32;;;;;;;56.92;37.95;;;;;;;;;;5110696;28;20511;-70
2022/01/02 15:14:58;;;;;;;80.68;47.95;;;;;;;;;;5111104;28;20472;-71
2022/01/02 15:17:26;;;;;;;92.90;57.30;;;;;;;;;;5109746;28;20024;-70
2022/01/02 15:21:57;;;;;;;87.20;58.60;;;;;;;;;;5112037;27;20404;-69
2022/01/02 15:28:03;;;;;;;75.55;51.45;;;;;;;;;;5111447;27;20385;-71
2022/01/02 15:30:30;;;;;;;71.00;49.20;;;;;;;;;;5111152;28;20440;-71
2022/01/02 15:32:56;;;;;;;61.67;42.30;;;;;;;;;;5110708;28;20024;-71
2022/01/02 15:35:23;;;;;;;61.10;40.22;;;;;;;;;;5110935;28;20023;-70
2022/01/02 15:37:49;;;;;;;54.40;38.78;;;;;;;;;;5111162;28;20372;-70
2022/01/02 15:42:38;;;;;;;61.40;41.17;;;;;;;;;;5111256;27;20445;-70
2022/01/02 15:45:05;;;;;;;87.75;52.72;;;;;;;;;;5111059;28;20036;-70
2022/01/02 15:48:49;;;;;;;92.85;57.55;;;;;;;;;;5111848;27;20396;-70
2022/01/02 15:51:16;;;;;;;102.72;63.63;;;;;;;;;;5111122;28;20020;-71
2022/01/02 15:53:42;;;;;;;93.68;60.78;;;;;;;;;;5110680;28;20030;-71
2022/01/02 15:57:50;;;;;;;94.45;63.90;;;;;;;;;;5111961;27;20384;-69
2022/01/02 16:00:16;;;;;;;118.03;77.38;;;;;;;;;;5110840;28;20103;-69